createdAt,value
2023-03-03T00:02:18.142Z,100180.81
2023-03-03T00:04:46.410Z,100182.28
2023-03-03T00:07:22.411Z,100180.28
2023-03-03T00:09:51.016Z,100184.94
2023-03-03T00:12:28.559Z,100188.81
2023-03-03T00:14:57.074Z,100197.34
2023-03-03T00:17:28.236Z,100204.34
2023-03-03T00:19:57.195Z,100216.09
2023-03-03T00:22:37.469Z,100209.53
2023-03-03T00:25:32.157Z,100223.16
2023-03-03T00:28:18.494Z,100226.16
2023-03-03T00:30:46.839Z,100235.00
2023-03-03T00:33:36.353Z,100232.00
2023-03-03T00:36:33.681Z,100249.97
2023-03-03T00:39:26.887Z,100253.25
2023-03-03T00:41:55.511Z,100259.78
2023-03-03T00:44:49.235Z,100258.00
2023-03-03T00:47:31.593Z,100263.31
2023-03-03T00:50:09.141Z,100266.63
2023-03-03T00:52:46.005Z,100273.91
2023-03-03T00:55:14.310Z,100270.91
2023-03-03T00:57:42.641Z,100274.19
2023-03-03T01:00:12.504Z,100278.69
2023-03-03T01:02:40.886Z,100285.22
2023-03-03T01:05:17.587Z,100278.31
2023-03-03T01:07:45.909Z,100286.38
2023-03-03T01:10:14.814Z,100290.13
2023-03-03T01:12:43.192Z,100285.50
2023-03-03T01:15:13.833Z,100291.59
2023-03-03T01:17:42.564Z,100293.00
2023-03-03T01:20:13.725Z,100301.06
2023-03-03T01:22:42.443Z,100303.28
2023-03-03T01:25:11.648Z,100306.56
2023-03-03T01:27:40.180Z,100313.41
2023-03-03T01:30:10.244Z,100319.94
2023-03-03T01:32:38.812Z,100316.84
2023-03-03T01:35:07.641Z,100326.16
2023-03-03T01:37:37.184Z,100327.91
2023-03-03T01:40:08.996Z,100326.81
2023-03-03T01:42:37.337Z,100320.66
2023-03-03T01:45:17.678Z,100326.69
2023-03-03T01:47:57.286Z,100322.41
2023-03-03T01:50:39.430Z,100321.00
2023-03-03T01:53:21.501Z,100331.41
2023-03-03T01:55:52.352Z,100329.09
2023-03-03T01:58:30.062Z,100325.56
2023-03-03T02:01:05.478Z,100335.63
2023-03-03T02:03:35.256Z,100334.06
2023-03-03T02:06:11.186Z,100338.13
2023-03-03T02:09:07.308Z,100345.69
2023-03-03T02:11:39.157Z,100351.25
2023-03-03T02:14:07.564Z,100356.09
2023-03-03T02:16:35.959Z,100352.50
2023-03-03T02:19:08.075Z,100352.97
2023-03-03T02:21:36.426Z,100360.72
2023-03-03T02:24:51.731Z,100356.50
2023-03-03T02:27:20.675Z,100352.63
2023-03-03T02:29:49.084Z,100356.81
2023-03-03T02:32:17.414Z,100357.72
2023-03-03T02:34:53.499Z,100357.38
2023-03-03T02:37:22.335Z,100355.81
2023-03-03T02:39:50.630Z,100359.81
2023-03-03T02:42:27.000Z,100356.22
2023-03-03T02:44:55.476Z,100361.94
2023-03-03T02:47:23.764Z,100357.59
2023-03-03T02:49:52.048Z,100353.19
2023-03-03T02:52:20.350Z,100350.81
2023-03-03T02:54:48.895Z,100347.22
2023-03-03T02:57:17.298Z,100339.53
2023-03-03T02:59:45.654Z,100338.72
2023-03-03T03:02:14.048Z,100330.28
2023-03-03T03:04:42.633Z,100326.63
2023-03-03T03:07:11.091Z,100333.09
2023-03-03T03:09:39.574Z,100329.50
2023-03-03T03:12:08.581Z,100329.13
2023-03-03T03:14:37.042Z,100319.09
2023-03-03T03:17:05.857Z,100310.31
2023-03-03T03:19:34.127Z,100313.53
2023-03-03T03:22:02.544Z,100308.31
2023-03-03T03:24:30.858Z,100307.16
2023-03-03T03:26:59.143Z,100308.78
2023-03-03T03:29:27.457Z,100298.00
2023-03-03T03:31:55.824Z,100292.78
2023-03-03T03:34:24.235Z,100299.06
2023-03-03T03:36:52.542Z,100291.81
2023-03-03T03:39:21.422Z,100286.59
2023-03-03T03:41:49.710Z,100286.47
2023-03-03T03:44:18.027Z,100283.25
2023-03-03T03:46:46.745Z,100276.75
2023-03-03T03:49:15.061Z,100272.56
2023-03-03T03:51:43.402Z,100260.91
2023-03-03T03:54:12.016Z,100264.88
2023-03-03T03:56:40.578Z,100260.13
2023-03-03T03:59:09.571Z,100261.25
2023-03-03T04:01:37.902Z,100248.03
2023-03-03T04:04:06.607Z,100246.09
2023-03-03T04:06:35.056Z,100250.00
2023-03-03T04:09:09.803Z,100248.81
2023-03-03T04:11:38.659Z,100242.47
2023-03-03T04:14:07.092Z,100241.28
2023-03-03T04:16:40.332Z,100237.75
2023-03-03T04:19:08.644Z,100226.59
2023-03-03T04:21:37.004Z,100228.97
2023-03-03T04:24:05.426Z,100215.75
2023-03-03T04:26:34.471Z,100214.81
2023-03-03T04:29:02.766Z,100218.44
2023-03-03T04:31:31.152Z,100211.59
2023-03-03T04:33:59.557Z,100210.09
2023-03-03T04:36:36.633Z,100204.53
2023-03-03T04:39:04.995Z,100198.19
2023-03-03T04:41:33.441Z,100194.66
2023-03-03T04:44:01.784Z,100195.94
2023-03-03T04:46:30.156Z,100187.56
2023-03-03T04:48:58.528Z,100180.72
2023-03-03T04:51:26.878Z,100175.94
2023-03-03T04:53:55.165Z,100160.38
2023-03-03T04:56:23.589Z,100158.84
2023-03-03T04:58:51.903Z,100146.34
2023-03-03T05:01:20.671Z,100148.72
2023-03-03T05:03:48.987Z,100143.38
2023-03-03T05:06:19.732Z,100145.69
2023-03-03T05:08:48.277Z,100144.41
2023-03-03T05:11:16.561Z,100126.81
2023-03-03T05:13:47.980Z,100121.97
2023-03-03T05:16:18.885Z,100119.97
2023-03-03T05:18:47.312Z,100116.91
2023-03-03T05:21:15.772Z,100106.16
2023-03-03T05:23:44.096Z,100103.38
2023-03-03T05:26:12.409Z,100103.13
2023-03-03T05:28:40.711Z,100100.31
2023-03-03T05:31:09.023Z,100093.91
2023-03-03T05:33:40.072Z,100087.25
2023-03-03T05:36:08.855Z,100087.50
2023-03-03T05:38:37.250Z,100084.94
2023-03-03T05:41:05.712Z,100067.31
2023-03-03T05:43:34.080Z,100071.66
2023-03-03T05:46:02.481Z,100061.69
2023-03-03T05:48:31.263Z,100059.13
2023-03-03T05:51:00.727Z,100050.44
2023-03-03T05:53:30.199Z,100051.72
2023-03-03T05:55:58.991Z,100049.41
2023-03-03T05:58:27.602Z,100043.25
2023-03-03T06:00:56.014Z,100033.53
2023-03-03T06:03:24.400Z,100022.28
2023-03-03T06:05:52.742Z,100021.50
2023-03-03T06:08:21.356Z,100009.19
2023-03-03T06:10:49.730Z,99997.66
2023-03-03T06:13:18.085Z,100005.84
2023-03-03T06:15:46.491Z,100000.44
2023-03-03T06:18:14.918Z,99990.19
2023-03-03T06:20:43.243Z,99986.88
2023-03-03T06:23:12.046Z,99978.91
2023-03-03T06:25:40.817Z,99970.47
2023-03-03T06:28:09.169Z,99974.00
2023-03-03T06:30:39.007Z,99959.13
2023-03-03T06:33:08.316Z,99943.22
2023-03-03T06:35:36.848Z,99949.06
2023-03-03T06:38:05.251Z,99939.09
2023-03-03T06:40:36.927Z,99936.78
2023-03-03T06:43:05.807Z,99937.78
2023-03-03T06:45:34.121Z,99927.50
2023-03-03T06:48:03.086Z,99918.00
2023-03-03T06:50:39.738Z,99911.56
2023-03-03T06:53:17.405Z,99905.13
2023-03-03T06:55:46.481Z,99904.34
2023-03-03T06:58:20.259Z,99899.47
2023-03-03T07:00:58.846Z,99894.88
2023-03-03T07:03:33.788Z,99882.53
2023-03-03T07:06:05.860Z,99879.19
2023-03-03T07:08:42.471Z,99879.66
2023-03-03T07:11:17.455Z,99868.88
2023-03-03T07:13:57.091Z,99862.69
2023-03-03T07:16:29.666Z,99860.34
2023-03-03T07:19:06.264Z,99850.84
2023-03-03T07:21:39.787Z,99845.66
2023-03-03T07:24:30.370Z,99842.59
2023-03-03T07:27:21.801Z,99829.72
2023-03-03T07:29:52.542Z,99828.44
2023-03-03T07:32:41.309Z,99822.28
2023-03-03T07:35:39.909Z,99821.75
2023-03-03T07:38:43.500Z,99810.69
2023-03-03T07:41:21.729Z,99807.81
2023-03-03T07:43:55.567Z,99811.63
2023-03-03T07:46:45.057Z,99802.09
2023-03-03T07:49:24.247Z,99797.47
2023-03-03T07:51:58.607Z,99802.06
2023-03-03T07:54:46.894Z,99800.22
2023-03-03T07:57:36.154Z,99799.16
2023-03-03T08:00:19.480Z,99793.00
2023-03-03T08:02:56.617Z,99792.69
2023-03-03T08:05:36.852Z,99788.03
2023-03-03T08:08:11.286Z,99785.22
2023-03-03T08:10:40.789Z,99788.28
2023-03-03T08:13:25.288Z,99789.03
2023-03-03T08:16:04.352Z,99776.97
2023-03-03T08:18:37.080Z,99774.91
2023-03-03T08:21:15.922Z,99763.09
2023-03-03T08:23:44.240Z,99760.81
2023-03-03T08:26:17.883Z,99759.75
2023-03-03T08:28:46.713Z,99758.44
2023-03-03T08:31:22.591Z,99763.56
2023-03-03T08:33:59.991Z,99755.84
2023-03-03T08:36:28.310Z,99750.44
2023-03-03T08:38:56.657Z,99750.44
2023-03-03T08:41:25.003Z,99746.84
2023-03-03T08:43:53.338Z,99748.16
2023-03-03T08:46:21.663Z,99745.09
2023-03-03T08:48:50.668Z,99745.84
2023-03-03T08:51:18.987Z,99742.28
2023-03-03T08:53:47.348Z,99742.81
2023-03-03T08:56:15.638Z,99746.41
2023-03-03T08:59:03.894Z,99748.44
2023-03-03T09:01:36.495Z,99749.00
2023-03-03T09:04:04.972Z,99754.63
2023-03-03T09:06:33.304Z,99746.16
2023-03-03T09:09:02.167Z,99749.00
2023-03-03T09:11:31.649Z,99742.59
2023-03-03T09:14:14.981Z,99748.75
2023-03-03T09:16:53.835Z,99752.88
2023-03-03T09:19:36.132Z,99749.28
2023-03-03T09:22:25.785Z,99762.09
2023-03-03T09:24:58.391Z,99759.06
2023-03-03T09:27:29.479Z,99764.69
2023-03-03T09:30:04.206Z,99760.88
2023-03-03T09:32:40.550Z,99764.25
2023-03-03T09:35:27.277Z,99770.19
2023-03-03T09:37:55.639Z,99769.50
2023-03-03T09:41:05.586Z,99777.47
2023-03-03T09:43:47.645Z,99772.66
2023-03-03T09:46:40.827Z,99776.31
2023-03-03T09:49:36.574Z,99774.84
2023-03-03T09:52:35.005Z,99781.31
2023-03-03T09:55:22.737Z,99780.81
2023-03-03T09:58:10.372Z,99775.47
2023-03-03T10:00:47.863Z,99784.22
2023-03-03T10:03:34.967Z,99783.50
2023-03-03T10:06:38.149Z,99784.34
2023-03-03T10:09:30.921Z,99806.44
2023-03-03T10:12:26.985Z,99793.41
2023-03-03T10:15:04.751Z,99796.03
2023-03-03T10:17:56.977Z,99800.22
2023-03-03T10:20:47.508Z,99804.88
2023-03-03T10:23:24.304Z,99803.13
2023-03-03T10:26:03.011Z,99814.97
2023-03-03T10:28:56.222Z,99813.25
2023-03-03T10:31:40.599Z,99818.13
2023-03-03T10:34:40.305Z,99812.28
2023-03-03T10:37:14.853Z,99816.94
2023-03-03T10:40:06.730Z,99812.63
2023-03-03T10:42:42.498Z,99820.84
2023-03-03T10:48:58.021Z,99819.63
2023-03-03T10:51:31.889Z,99823.75
2023-03-03T10:54:18.278Z,99820.69
2023-03-03T10:57:13.559Z,99822.53
2023-03-03T10:59:53.736Z,99833.56
2023-03-03T11:02:27.839Z,99833.06
2023-03-03T11:04:59.142Z,99832.03
2023-03-03T11:07:45.939Z,99835.91
2023-03-03T11:10:48.089Z,99845.09
2023-03-03T11:13:41.107Z,99843.31
2023-03-03T11:16:48.368Z,99839.00
2023-03-03T11:19:35.391Z,99842.31
2023-03-03T11:22:12.453Z,99846.91
2023-03-03T11:25:11.714Z,99843.53
2023-03-03T11:27:58.181Z,99847.88
2023-03-03T11:30:36.677Z,99856.56
2023-03-03T11:33:16.248Z,99856.00
2023-03-03T11:36:17.784Z,99859.56
2023-03-03T11:39:03.510Z,99865.94
2023-03-03T11:41:36.427Z,99860.78
2023-03-03T11:44:25.745Z,99870.16
2023-03-03T11:47:03.381Z,99878.03
2023-03-03T11:49:57.656Z,99887.41
2023-03-03T11:52:50.847Z,99887.63
2023-03-03T11:55:38.689Z,99891.41
2023-03-03T11:58:21.465Z,99915.06
2023-03-03T12:01:08.777Z,99904.59
2023-03-03T12:03:55.238Z,99910.16
2023-03-03T12:06:29.887Z,99920.56
2023-03-03T12:09:06.954Z,99923.06
2023-03-03T12:11:40.984Z,99921.44
2023-03-03T12:14:30.208Z,99935.44
2023-03-03T12:17:08.227Z,99938.94
2023-03-03T12:20:11.044Z,99937.88
2023-03-03T12:23:11.954Z,99940.59
2023-03-03T12:26:17.790Z,99946.16
2023-03-03T12:29:00.926Z,99946.88
2023-03-03T12:31:40.442Z,99956.00
2023-03-03T12:34:20.743Z,99959.78
2023-03-03T12:37:09.068Z,99967.84
2023-03-03T12:39:58.094Z,99974.16
2023-03-03T12:43:07.321Z,99969.75
2023-03-03T12:45:57.347Z,99966.38
2023-03-03T12:48:32.398Z,99977.03
2023-03-03T12:51:04.423Z,99977.25
2023-03-03T12:54:06.976Z,99987.09
2023-03-03T12:56:40.731Z,99979.41
2023-03-03T12:59:13.012Z,99986.75
2023-03-03T13:02:03.056Z,100003.00
2023-03-03T13:04:46.613Z,100000.41
2023-03-03T13:07:41.373Z,100002.16
2023-03-03T13:10:22.168Z,100015.38
2023-03-03T13:13:33.599Z,100011.31
2023-03-03T13:16:17.111Z,100019.50
2023-03-03T13:18:57.481Z,100019.78
2023-03-03T13:21:39.635Z,100027.69
2023-03-03T13:24:16.729Z,100030.78
2023-03-03T13:26:48.575Z,100028.47
2023-03-03T13:29:36.426Z,100034.84
2023-03-03T13:32:22.037Z,100040.44
2023-03-03T13:35:20.603Z,100038.13
2023-03-03T13:37:58.719Z,100046.53
2023-03-03T13:40:53.434Z,100051.56
2023-03-03T13:43:30.449Z,100060.44
2023-03-03T13:46:06.929Z,100060.66
2023-03-03T13:49:05.185Z,100063.66
2023-03-03T13:51:53.654Z,100068.97
2023-03-03T13:54:28.305Z,100071.97
2023-03-03T13:57:32.193Z,100071.88
2023-03-03T14:00:03.898Z,100080.47
2023-03-03T14:02:55.260Z,100084.75
2023-03-03T14:06:01.389Z,100085.16
2023-03-03T14:08:33.293Z,100089.34
2023-03-03T14:11:05.132Z,100085.97
2023-03-03T14:14:06.619Z,100094.56
2023-03-03T14:16:44.512Z,100094.00
2023-03-03T14:19:23.480Z,100091.69
2023-03-03T14:22:27.392Z,100098.06
2023-03-03T14:25:07.774Z,100102.88
2023-03-03T14:28:02.112Z,100099.59
2023-03-03T14:30:35.168Z,100103.16
2023-03-03T14:33:04.151Z,100112.59
2023-03-03T14:35:46.419Z,100106.25
2023-03-03T14:38:18.826Z,100111.06
2023-03-03T14:40:49.639Z,100117.91
2023-03-03T14:43:35.954Z,100117.63
2023-03-03T14:46:38.661Z,100128.03
2023-03-03T14:49:32.959Z,100127.00
2023-03-03T14:52:25.285Z,100126.69
2023-03-03T14:55:24.338Z,100130.75
2023-03-03T14:57:53.375Z,100124.09
2023-03-03T15:00:24.883Z,100128.91
2023-03-03T15:03:23.141Z,100129.41
2023-03-03T15:05:59.390Z,100135.00
2023-03-03T15:08:37.315Z,100132.19
2023-03-03T15:11:41.668Z,100135.78
2023-03-03T15:14:19.988Z,100132.19
2023-03-03T15:16:49.081Z,100137.31
2023-03-03T15:19:35.967Z,100140.09
2023-03-03T15:22:21.860Z,100141.38
2023-03-03T15:25:10.910Z,100138.56
2023-03-03T15:28:16.939Z,100138.38
2023-03-03T15:30:52.979Z,100139.44
2023-03-03T15:33:48.544Z,100142.22
2023-03-03T15:36:53.511Z,100142.22
2023-03-03T15:39:27.998Z,100138.66
2023-03-03T15:42:08.414Z,100140.69
2023-03-03T15:45:01.158Z,100154.19
2023-03-03T15:47:33.062Z,100153.69
2023-03-03T15:50:26.985Z,100155.72
2023-03-03T15:53:11.020Z,100158.53
2023-03-03T15:55:51.692Z,100150.13
2023-03-03T15:58:23.623Z,100155.25
2023-03-03T16:00:57.703Z,100151.69
2023-03-03T16:03:37.297Z,100159.78
2023-03-03T16:06:16.420Z,100161.31
2023-03-03T16:09:07.285Z,100161.31
2023-03-03T16:11:47.838Z,100157.75
2023-03-03T16:14:22.197Z,100163.81
2023-03-03T16:17:15.839Z,100164.31
2023-03-03T16:20:03.934Z,100162.00
2023-03-03T16:22:46.979Z,100164.50
2023-03-03T16:25:33.236Z,100169.31
2023-03-03T16:28:15.301Z,100169.81
2023-03-03T16:31:04.895Z,100163.91
2023-03-03T16:33:35.861Z,100174.78
2023-03-03T16:36:30.013Z,100170.44
2023-03-03T16:39:21.415Z,100169.88
2023-03-03T16:42:09.262Z,100164.28
2023-03-03T16:45:07.942Z,100179.50
2023-03-03T16:47:48.598Z,100170.84
2023-03-03T16:50:38.169Z,100170.06
2023-03-03T16:53:20.067Z,100173.34
2023-03-03T16:56:12.940Z,100174.59
2023-03-03T16:59:02.522Z,100171.03
2023-03-03T17:01:39.733Z,100169.19
2023-03-03T17:04:32.106Z,100174.00
2023-03-03T17:07:24.535Z,100167.06
2023-03-03T17:10:33.042Z,100168.81
2023-03-03T17:13:01.357Z,100161.34
2023-03-03T17:16:00.468Z,100164.81
2023-03-03T17:18:40.630Z,100162.22
2023-03-03T17:21:34.791Z,100163.16
2023-03-03T17:24:06.095Z,100154.97
2023-03-03T17:26:47.343Z,100161.03
2023-03-03T17:29:35.454Z,100154.38
2023-03-03T17:32:45.166Z,100168.50
2023-03-03T17:35:40.565Z,100160.59
2023-03-03T17:38:29.775Z,100159.53
2023-03-03T17:41:07.582Z,100159.22
2023-03-03T17:43:54.207Z,100168.09
2023-03-03T17:46:31.218Z,100162.50
2023-03-03T17:49:11.687Z,100167.78
2023-03-03T17:52:01.056Z,100169.50
2023-03-03T17:54:41.162Z,100170.00
2023-03-03T17:57:28.314Z,100164.59
2023-03-03T18:00:18.209Z,100158.72
2023-03-03T18:02:53.268Z,100156.88
2023-03-03T18:05:37.316Z,100162.94
2023-03-03T18:08:43.649Z,100160.63
2023-03-03T18:11:35.283Z,100161.56
2023-03-03T18:14:25.079Z,100158.94
2023-03-03T18:17:11.820Z,100161.44
2023-03-03T18:20:10.389Z,100169.50
2023-03-03T18:22:47.930Z,100174.03
2023-03-03T18:25:27.421Z,100161.00
2023-03-03T18:28:02.165Z,100161.50
2023-03-03T18:31:00.504Z,100165.25
2023-03-03T18:33:59.343Z,100171.28
2023-03-03T18:36:27.700Z,100162.31
2023-03-03T18:38:58.583Z,100164.03
2023-03-03T18:41:51.772Z,100172.91
2023-03-03T18:44:46.892Z,100177.84
2023-03-03T18:47:16.035Z,100166.88
2023-03-03T18:50:16.644Z,100164.53
2023-03-03T18:53:23.737Z,100167.03
2023-03-03T18:56:02.617Z,100175.59
2023-03-03T18:58:36.017Z,100166.91
2023-03-03T19:01:11.645Z,100166.59
2023-03-03T19:04:04.316Z,100159.63
2023-03-03T19:06:38.717Z,100166.47
2023-03-03T19:09:08.482Z,100163.06
2023-03-03T19:11:58.522Z,100166.34
2023-03-03T19:14:28.578Z,100167.25
2023-03-03T19:17:17.284Z,100158.59
2023-03-03T19:20:16.146Z,100162.78
2023-03-03T19:22:53.625Z,100156.91
2023-03-03T19:25:32.726Z,100157.09
2023-03-03T19:28:04.008Z,100154.00
2023-03-03T19:31:07.109Z,100150.13
2023-03-03T19:33:57.182Z,100144.25
2023-03-03T19:37:00.387Z,100147.22
2023-03-03T19:39:45.833Z,100143.34
2023-03-03T19:42:40.998Z,100133.88
2023-03-03T19:45:18.350Z,100143.19
2023-03-03T19:47:54.641Z,100141.34
2023-03-03T19:50:42.372Z,100134.97
2023-03-03T19:53:22.582Z,100137.47
2023-03-03T19:56:07.853Z,100132.06
2023-03-03T19:59:05.190Z,100133.31
2023-03-03T20:02:14.840Z,100129.75
2023-03-03T20:05:41.055Z,100127.91
2023-03-03T20:08:27.499Z,100132.41
2023-03-03T20:11:17.017Z,100130.09
2023-03-03T20:13:59.037Z,100130.25
2023-03-03T20:16:43.803Z,100129.13
2023-03-03T20:19:55.294Z,100128.06
2023-03-03T20:22:26.475Z,100123.72
2023-03-03T20:25:21.380Z,100122.34
2023-03-03T20:28:20.465Z,100125.91
2023-03-03T20:31:11.890Z,100130.41
2023-03-03T20:34:07.489Z,100128.53
2023-03-03T20:36:53.823Z,100128.22
2023-03-03T20:39:31.183Z,100129.47
2023-03-03T20:42:19.326Z,100132.72
2023-03-03T20:45:12.498Z,100128.84
2023-03-03T20:48:07.174Z,100127.00
2023-03-03T20:50:59.711Z,100132.28
2023-03-03T20:53:46.549Z,100133.97
2023-03-03T20:56:29.954Z,100133.66
2023-03-03T20:59:16.613Z,100127.00
2023-03-03T21:02:03.608Z,100133.03
2023-03-03T21:04:34.569Z,100133.50
2023-03-03T21:07:05.296Z,100131.19
2023-03-03T21:09:39.831Z,100126.84
2023-03-03T21:12:30.951Z,100129.03
2023-03-03T21:15:04.625Z,100124.22
2023-03-03T21:17:33.378Z,100121.91
2023-03-03T21:20:31.339Z,100114.03
2023-03-03T21:23:01.207Z,100125.63
2023-03-03T21:25:42.066Z,100124.84
2023-03-03T21:28:31.317Z,100126.56
2023-03-03T21:31:16.658Z,100123.94
2023-03-03T21:33:59.029Z,100125.16
2023-03-03T21:36:33.579Z,100126.84
2023-03-03T21:39:03.143Z,100127.31
2023-03-03T21:41:54.154Z,100130.56
2023-03-03T21:44:34.517Z,100133.03
2023-03-03T21:47:03.749Z,100133.03
2023-03-03T21:49:32.098Z,100128.41
2023-03-03T21:52:01.009Z,100135.22
2023-03-03T21:54:30.328Z,100128.56
2023-03-03T21:56:58.677Z,100136.13
2023-03-03T21:59:27.048Z,100137.84
2023-03-03T22:01:55.419Z,100135.84
2023-03-03T22:04:23.931Z,100139.84
2023-03-03T22:06:53.659Z,100133.50
2023-03-03T22:09:22.350Z,100138.78
2023-03-03T22:11:50.795Z,100147.13
2023-03-03T22:14:19.514Z,100144.81
2023-03-03T22:16:47.930Z,100152.84
2023-03-03T22:19:16.271Z,100138.16
2023-03-03T22:21:45.020Z,100150.97
2023-03-03T22:24:13.617Z,100154.97
2023-03-03T22:26:41.889Z,100166.13
2023-03-03T22:29:11.162Z,100156.69
2023-03-03T22:31:39.555Z,100160.69
2023-03-03T22:34:08.007Z,100169.97
2023-03-03T22:36:36.341Z,100171.69
2023-03-03T22:39:04.644Z,100171.38
2023-03-03T22:41:33.779Z,100170.25
2023-03-03T22:44:02.070Z,100174.25
2023-03-03T22:46:30.427Z,100173.50
2023-03-03T22:48:58.732Z,100175.19
2023-03-03T22:51:27.318Z,100181.22
2023-03-03T22:53:55.697Z,100178.13
2023-03-03T22:56:24.073Z,100184.59
2023-03-03T22:58:52.385Z,100184.59
2023-03-03T23:01:20.699Z,100191.06
2023-03-03T23:03:51.052Z,100193.22
2023-03-03T23:06:19.441Z,100198.47
2023-03-03T23:08:47.824Z,100203.72
2023-03-03T23:11:16.183Z,100211.44
2023-03-03T23:13:44.484Z,100218.69
2023-03-03T23:16:12.894Z,100221.16
2023-03-03T23:18:41.269Z,100226.41
2023-03-03T23:21:09.652Z,100228.09
2023-03-03T23:23:38.228Z,100227.78
2023-03-03T23:26:06.687Z,100235.81
2023-03-03T23:28:35.348Z,100235.94
2023-03-03T23:31:03.685Z,100241.94
2023-03-03T23:33:32.090Z,100247.66
2023-03-03T23:36:00.467Z,100253.66
2023-03-03T23:38:28.825Z,100260.47
2023-03-03T23:40:57.135Z,100270.03
2023-03-03T23:43:25.473Z,100262.94
2023-03-03T23:45:53.804Z,100264.47
2023-03-03T23:48:22.195Z,100271.25
2023-03-03T23:50:50.760Z,100283.16
2023-03-03T23:53:20.348Z,100275.59
2023-03-03T23:55:48.744Z,100282.72
2023-03-03T23:58:17.125Z,100279.16
